createdAt,value
2019-03-25T00:01:18.941Z,61.20
2019-03-25T00:02:51.774Z,61.10
2019-03-25T00:04:24.698Z,61.10
2019-03-25T00:05:57.549Z,62.00
2019-03-25T00:07:30.258Z,61.00
2019-03-25T00:09:05.687Z,61.10
2019-03-25T00:10:38.707Z,61.10
2019-03-25T00:12:11.542Z,61.20
2019-03-25T00:13:44.316Z,61.30
2019-03-25T00:15:17.161Z,61.40
2019-03-25T00:16:50.030Z,61.50
2019-03-25T00:18:22.824Z,61.50
2019-03-25T00:19:55.678Z,61.40
2019-03-25T00:21:28.418Z,61.30
2019-03-25T00:23:01.274Z,61.40
2019-03-25T00:24:38.744Z,61.70
2019-03-25T00:26:08.607Z,61.60
2019-03-25T00:27:41.244Z,61.50
2019-03-25T00:29:14.057Z,61.60
2019-03-25T00:30:46.915Z,61.40
2019-03-25T00:32:19.745Z,61.30
2019-03-25T00:33:52.535Z,61.40
2019-03-25T00:35:25.259Z,61.40
2019-03-25T00:36:58.058Z,61.40
2019-03-25T00:38:30.909Z,61.40
2019-03-25T00:40:04.871Z,61.40
2019-03-25T00:41:37.572Z,62.60
2019-03-25T00:43:10.350Z,61.40
2019-03-25T00:44:43.249Z,61.70
2019-03-25T00:46:16.021Z,61.70
2019-03-25T00:47:48.875Z,61.50
2019-03-25T00:49:21.556Z,61.70
2019-03-25T00:50:54.392Z,61.80
2019-03-25T00:52:27.211Z,61.80
2019-03-25T00:53:59.893Z,61.80
2019-03-25T00:55:32.735Z,62.00
2019-03-25T00:57:05.655Z,61.90
2019-03-25T00:58:38.478Z,62.10
2019-03-25T01:00:11.711Z,62.30
2019-03-25T01:01:44.429Z,62.10
2019-03-25T01:03:17.241Z,62.40
2019-03-25T01:04:49.908Z,62.50
2019-03-25T01:06:22.647Z,62.40
2019-03-25T01:07:55.461Z,62.40
2019-03-25T01:09:28.286Z,62.60
2019-03-25T01:11:00.976Z,62.70
2019-03-25T01:12:33.764Z,62.70
2019-03-25T01:14:06.595Z,62.50
2019-03-25T01:15:39.399Z,63.00
2019-03-25T01:17:12.321Z,62.80
2019-03-25T01:18:45.122Z,62.80
2019-03-25T01:20:17.987Z,62.80
2019-03-25T01:21:50.910Z,62.90
2019-03-25T01:23:23.702Z,63.20
2019-03-25T01:25:01.753Z,63.40
2019-03-25T01:26:31.243Z,63.20
2019-03-25T01:28:04.189Z,63.20
2019-03-25T01:29:36.838Z,63.30
2019-03-25T01:31:09.710Z,63.40
2019-03-25T01:32:42.671Z,63.50
2019-03-25T01:34:15.484Z,63.50
2019-03-25T01:35:48.303Z,63.60
2019-03-25T01:37:20.986Z,63.80
2019-03-25T01:38:53.776Z,64.10
2019-03-25T01:40:26.836Z,64.00
2019-03-25T01:41:59.839Z,63.90
2019-03-25T01:43:32.740Z,63.80
2019-03-25T01:45:05.762Z,63.90
2019-03-25T01:46:38.609Z,63.90
2019-03-25T01:48:11.381Z,63.90
2019-03-25T01:49:44.220Z,63.90
2019-03-25T01:51:17.260Z,63.90
2019-03-25T01:52:50.257Z,63.80
2019-03-25T01:54:23.307Z,63.90
2019-03-25T01:55:56.172Z,64.20
2019-03-25T01:57:29.232Z,64.20
2019-03-25T01:59:02.267Z,64.40
2019-03-25T02:00:35.586Z,64.40
2019-03-25T02:02:08.651Z,64.60
2019-03-25T02:03:41.672Z,64.40
2019-03-25T02:05:14.544Z,64.70
2019-03-25T02:06:47.545Z,64.70
2019-03-25T02:08:20.616Z,64.40
2019-03-25T02:09:53.627Z,64.70
2019-03-25T02:11:26.689Z,64.70
2019-03-25T02:12:59.719Z,64.80
2019-03-25T02:14:32.759Z,64.70
2019-03-25T02:16:05.706Z,64.70
2019-03-25T02:17:38.591Z,64.80
2019-03-25T02:19:11.575Z,64.80
2019-03-25T02:20:44.421Z,65.00
2019-03-25T02:22:17.477Z,65.00
2019-03-25T02:23:50.380Z,65.10
2019-03-25T02:25:25.683Z,65.50
2019-03-25T02:26:58.132Z,65.50
2019-03-25T02:28:31.139Z,65.90
2019-03-25T02:30:04.667Z,65.70
2019-03-25T02:31:37.698Z,65.80
2019-03-25T02:33:10.682Z,65.90
2019-03-25T02:34:43.726Z,66.00
2019-03-25T02:36:16.763Z,66.20
2019-03-25T02:37:49.682Z,66.40
2019-03-25T02:39:22.779Z,66.30
2019-03-25T02:40:55.735Z,66.50
2019-03-25T02:42:28.789Z,66.50
2019-03-25T02:44:01.694Z,66.50
2019-03-25T02:45:34.717Z,66.70
2019-03-25T02:47:07.637Z,67.30
2019-03-25T02:48:40.649Z,66.50
2019-03-25T02:50:13.709Z,66.50
2019-03-25T02:51:46.808Z,66.70
2019-03-25T02:53:19.873Z,66.80
2019-03-25T02:54:52.889Z,66.70
2019-03-25T02:56:25.900Z,66.60
2019-03-25T02:57:58.845Z,66.50
2019-03-25T02:59:31.770Z,66.50
2019-03-25T03:01:04.837Z,66.60
2019-03-25T03:02:37.748Z,66.60
2019-03-25T03:04:10.831Z,66.70
2019-03-25T03:05:43.928Z,66.70
2019-03-25T03:07:16.946Z,66.70
2019-03-25T03:08:49.849Z,66.60
2019-03-25T03:10:22.856Z,66.80
2019-03-25T03:11:55.773Z,66.90
2019-03-25T03:13:28.788Z,66.90
2019-03-25T03:15:01.800Z,67.10
2019-03-25T03:16:34.959Z,67.10
2019-03-25T03:18:07.798Z,66.90
2019-03-25T03:19:40.859Z,67.20
2019-03-25T03:21:13.866Z,67.40
2019-03-25T03:22:46.826Z,67.30
2019-03-25T03:24:19.870Z,67.50
2019-03-25T03:25:57.819Z,67.40
2019-03-25T03:27:29.855Z,67.50
2019-03-25T03:29:02.408Z,67.60
2019-03-25T03:30:35.431Z,67.30
2019-03-25T03:32:08.550Z,67.90
2019-03-25T03:33:41.626Z,67.50
2019-03-25T03:35:14.700Z,67.90
2019-03-25T03:36:47.751Z,68.10
2019-03-25T03:38:20.839Z,68.10
2019-03-25T03:39:53.840Z,67.90
2019-03-25T03:41:26.844Z,68.00
2019-03-25T03:42:59.799Z,68.20
2019-03-25T03:44:32.792Z,68.10
2019-03-25T03:46:05.833Z,68.20
2019-03-25T03:47:38.927Z,67.90
2019-03-25T03:49:11.900Z,68.10
2019-03-25T03:50:44.948Z,68.00
2019-03-25T03:52:18.022Z,68.10
2019-03-25T03:53:50.946Z,68.20
2019-03-25T03:55:24.200Z,69.10
2019-03-25T03:56:57.191Z,68.10
2019-03-25T03:58:30.998Z,68.10
2019-03-25T04:00:04.312Z,68.20
2019-03-25T04:01:37.144Z,68.50
2019-03-25T04:03:09.951Z,68.30
2019-03-25T04:04:42.888Z,69.40
2019-03-25T04:06:16.049Z,68.60
2019-03-25T04:07:48.956Z,68.50
2019-03-25T04:09:21.812Z,68.70
2019-03-25T04:10:54.651Z,68.80
2019-03-25T04:12:27.316Z,68.80
2019-03-25T04:14:00.145Z,68.70
2019-03-25T04:15:32.902Z,68.80
2019-03-25T04:17:05.708Z,68.80
2019-03-25T04:18:38.653Z,69.30
2019-03-25T04:20:11.513Z,69.10
2019-03-25T04:21:44.378Z,69.10
2019-03-25T04:23:17.054Z,68.90
2019-03-25T04:24:49.844Z,69.70
2019-03-25T04:26:28.852Z,68.80
2019-03-25T04:27:57.221Z,68.80
2019-03-25T04:29:30.158Z,68.70
2019-03-25T04:31:02.929Z,68.70
2019-03-25T04:32:35.797Z,68.90
2019-03-25T04:34:08.683Z,68.60
2019-03-25T04:35:41.367Z,68.40
2019-03-25T04:37:14.118Z,68.90
2019-03-25T04:38:46.904Z,68.90
2019-03-25T04:40:19.751Z,68.40
2019-03-25T04:41:52.695Z,68.40
2019-03-25T04:43:25.492Z,68.20
2019-03-25T04:44:58.320Z,68.30
2019-03-25T04:46:31.235Z,68.40
2019-03-25T04:48:03.975Z,68.20
2019-03-25T04:49:36.839Z,68.20
2019-03-25T04:51:09.651Z,68.40
2019-03-25T04:52:42.428Z,68.30
2019-03-25T04:54:15.112Z,68.20
2019-03-25T04:55:47.981Z,68.40
2019-03-25T04:57:20.726Z,68.60
2019-03-25T04:58:53.565Z,68.50
2019-03-25T05:00:37.114Z,68.60
2019-03-25T05:02:09.832Z,68.80
2019-03-25T05:03:42.676Z,68.70
2019-03-25T05:05:15.532Z,68.80
2019-03-25T05:06:48.338Z,68.60
2019-03-25T05:08:21.025Z,68.70
2019-03-25T05:09:53.869Z,68.70
2019-03-25T05:11:30.820Z,68.90
2019-03-25T05:13:01.281Z,69.20
2019-03-25T05:14:33.981Z,69.10
2019-03-25T05:16:06.683Z,68.90
2019-03-25T05:17:39.517Z,69.00
2019-03-25T05:19:12.305Z,68.70
2019-03-25T05:20:45.005Z,69.20
2019-03-25T05:22:17.897Z,68.90
2019-03-25T05:23:50.712Z,68.80
2019-03-25T05:25:23.533Z,69.10
2019-03-25T05:26:56.413Z,68.90
2019-03-25T05:28:29.214Z,69.10
2019-03-25T05:30:01.893Z,69.10
2019-03-25T05:31:34.734Z,68.90
2019-03-25T05:33:07.561Z,69.00
2019-03-25T05:34:40.384Z,69.40
2019-03-25T05:36:13.080Z,69.30
2019-03-25T05:37:46.174Z,69.30
2019-03-25T05:39:19.012Z,70.30
2019-03-25T05:40:51.837Z,69.60
2019-03-25T05:42:24.664Z,69.30
2019-03-25T05:43:57.439Z,69.30
2019-03-25T05:45:30.271Z,70.00
2019-03-25T05:47:03.081Z,69.30
2019-03-25T05:48:35.775Z,69.20
2019-03-25T05:50:09.178Z,69.30
2019-03-25T05:51:42.295Z,69.00
2019-03-25T05:53:15.044Z,68.90
2019-03-25T05:54:47.881Z,68.70
2019-03-25T05:56:20.847Z,68.90
2019-03-25T05:57:53.689Z,68.70
2019-03-25T05:59:26.457Z,68.40
2019-03-25T06:00:59.240Z,68.70
2019-03-25T06:02:32.045Z,68.50
2019-03-25T06:04:04.934Z,68.30
2019-03-25T06:05:37.751Z,68.90
2019-03-25T06:07:10.509Z,67.80
2019-03-25T06:08:43.321Z,68.40
2019-03-25T06:10:16.129Z,68.50
2019-03-25T06:11:48.871Z,68.30
2019-03-25T06:13:21.661Z,68.40
2019-03-25T06:14:54.520Z,68.40
2019-03-25T06:16:27.345Z,68.60
2019-03-25T06:18:00.099Z,68.60
2019-03-25T06:19:32.921Z,68.40
2019-03-25T06:21:05.626Z,68.50
2019-03-25T06:22:38.398Z,68.40
2019-03-25T06:24:11.270Z,68.40
2019-03-25T06:25:44.112Z,68.20
2019-03-25T06:27:16.895Z,68.10
2019-03-25T06:28:49.605Z,68.10
2019-03-25T06:30:22.399Z,68.10
2019-03-25T06:31:55.213Z,68.20
2019-03-25T06:33:28.107Z,68.10
2019-03-25T06:35:00.924Z,68.20
2019-03-25T06:36:33.729Z,68.40
2019-03-25T06:38:06.464Z,68.00
2019-03-25T06:39:39.228Z,68.00
2019-03-25T06:41:12.085Z,67.90
2019-03-25T06:42:44.869Z,68.00
2019-03-25T06:44:17.886Z,67.80
2019-03-25T06:45:50.592Z,67.60
2019-03-25T06:47:23.333Z,67.80
2019-03-25T06:48:56.165Z,67.70
2019-03-25T06:50:29.005Z,67.90
2019-03-25T06:52:01.869Z,67.60
2019-03-25T06:53:34.740Z,67.90
2019-03-25T06:55:07.778Z,68.00
2019-03-25T06:56:40.600Z,67.90
2019-03-25T06:58:13.436Z,67.80
2019-03-25T06:59:46.285Z,67.90
2019-03-25T07:01:19.081Z,67.80
2019-03-25T07:02:51.718Z,67.40
2019-03-25T07:04:24.525Z,67.40
2019-03-25T07:05:57.392Z,67.50
2019-03-25T07:07:30.297Z,67.40
2019-03-25T07:09:04.172Z,67.30
2019-03-25T07:10:37.460Z,67.20
2019-03-25T07:12:10.256Z,67.20
2019-03-25T07:13:43.255Z,67.10
2019-03-25T07:15:19.613Z,67.20
2019-03-25T07:16:52.332Z,67.00
2019-03-25T07:18:26.015Z,67.30
2019-03-25T07:19:58.837Z,66.90
2019-03-25T07:21:31.551Z,67.00
2019-03-25T07:23:04.484Z,67.00
2019-03-25T07:24:37.253Z,67.10
2019-03-25T07:26:10.073Z,67.10
2019-03-25T07:27:42.892Z,67.10
2019-03-25T07:29:15.660Z,67.10
2019-03-25T07:30:48.522Z,67.10
2019-03-25T07:32:21.360Z,67.10
2019-03-25T07:33:54.155Z,67.10
2019-03-25T07:35:27.037Z,66.90
2019-03-25T07:36:59.830Z,66.90
2019-03-25T07:38:32.534Z,67.00
2019-03-25T07:40:07.379Z,67.00
2019-03-25T07:41:40.187Z,66.90
2019-03-25T07:43:13.062Z,66.90
2019-03-25T07:44:45.936Z,66.30
2019-03-25T07:46:18.724Z,66.50
2019-03-25T07:47:51.535Z,66.30
2019-03-25T07:49:24.404Z,66.20
2019-03-25T07:50:57.241Z,66.10
2019-03-25T07:52:30.080Z,66.30
2019-03-25T07:54:02.958Z,67.20
2019-03-25T07:55:35.884Z,68.00
2019-03-25T07:57:08.675Z,68.50
2019-03-25T07:58:41.436Z,68.80
2019-03-25T08:00:14.395Z,69.30
2019-03-25T08:01:47.398Z,69.50
2019-03-25T08:03:20.260Z,70.10
2019-03-25T08:04:53.160Z,69.60
2019-03-25T08:06:26.006Z,70.10
2019-03-25T08:07:58.920Z,71.30
2019-03-25T08:09:31.769Z,70.70
2019-03-25T08:11:04.693Z,71.20
2019-03-25T08:12:37.632Z,71.50
2019-03-25T08:14:10.573Z,71.60
2019-03-25T08:15:43.281Z,71.60
2019-03-25T08:17:16.044Z,72.20
2019-03-25T08:18:48.889Z,72.10
2019-03-25T08:20:21.713Z,71.50
2019-03-25T08:21:54.514Z,72.20
2019-03-25T08:23:27.332Z,72.30
2019-03-25T08:25:00.331Z,73.10
2019-03-25T08:26:33.317Z,72.80
2019-03-25T08:28:06.095Z,72.70
2019-03-25T08:29:38.898Z,73.10
2019-03-25T08:31:11.724Z,72.90
2019-03-25T08:32:44.455Z,72.80
2019-03-25T08:34:17.251Z,73.00
2019-03-25T08:35:50.045Z,73.30
2019-03-25T08:37:22.878Z,72.70
2019-03-25T08:38:55.711Z,72.50
2019-03-25T08:40:28.559Z,72.60
2019-03-25T08:42:01.228Z,72.50
2019-03-25T08:43:34.039Z,72.40
2019-03-25T08:45:07.001Z,71.90
2019-03-25T08:46:39.776Z,71.50
2019-03-25T08:48:12.599Z,71.40
2019-03-25T08:49:45.279Z,70.80
2019-03-25T08:51:18.104Z,70.10
2019-03-25T08:52:50.905Z,69.10
2019-03-25T08:54:23.650Z,69.20
2019-03-25T08:55:56.335Z,69.40
2019-03-25T08:57:29.195Z,68.70
2019-03-25T08:59:02.030Z,69.00
2019-03-25T09:00:34.858Z,68.60
2019-03-25T09:02:07.666Z,68.50
2019-03-25T09:03:40.381Z,68.60
2019-03-25T09:05:13.154Z,67.80
2019-03-25T09:06:47.822Z,67.30
2019-03-25T09:08:20.577Z,66.80
2019-03-25T09:09:53.365Z,66.40
2019-03-25T09:11:26.176Z,65.30
2019-03-25T09:12:58.978Z,63.70
2019-03-25T09:14:31.795Z,62.90
2019-03-25T09:16:04.628Z,61.90
2019-03-25T09:17:37.444Z,60.80
2019-03-25T09:19:10.230Z,59.90
2019-03-25T09:20:43.061Z,59.10
2019-03-25T09:22:15.871Z,59.20
2019-03-25T09:23:48.731Z,58.80
2019-03-25T09:25:21.576Z,58.10
2019-03-25T09:26:54.414Z,57.50
2019-03-25T09:28:27.202Z,57.40
2019-03-25T09:29:59.892Z,56.90
2019-03-25T09:31:37.056Z,57.00
2019-03-25T09:33:07.670Z,55.30
2019-03-25T09:34:40.422Z,55.70
2019-03-25T09:36:14.002Z,55.40
2019-03-25T09:37:46.633Z,55.90
2019-03-25T09:39:19.339Z,55.90
2019-03-25T09:40:52.153Z,54.80
2019-03-25T09:42:24.819Z,54.40
2019-03-25T09:43:57.625Z,54.60
2019-03-25T09:45:30.388Z,56.00
2019-03-25T09:47:03.456Z,55.10
2019-03-25T09:48:36.321Z,53.80
2019-03-25T09:50:10.064Z,53.90
2019-03-25T09:51:42.879Z,51.20
2019-03-25T09:53:15.681Z,52.00
2019-03-25T09:54:48.379Z,51.80
2019-03-25T09:56:21.084Z,52.10
2019-03-25T09:57:53.944Z,52.20
2019-03-25T09:59:26.758Z,52.40
2019-03-25T10:00:59.437Z,51.80
2019-03-25T10:02:32.294Z,51.10
2019-03-25T10:04:05.349Z,50.30
2019-03-25T10:05:38.187Z,50.20
2019-03-25T10:07:23.172Z,50.10
2019-03-25T10:08:56.044Z,49.50
2019-03-25T10:10:28.831Z,49.90
2019-03-25T10:12:01.726Z,50.30
2019-03-25T10:13:34.467Z,49.60
2019-03-25T10:15:08.565Z,48.60
2019-03-25T10:16:41.368Z,48.30
2019-03-25T10:18:14.263Z,45.90
2019-03-25T10:19:47.256Z,46.60
2019-03-25T10:21:20.066Z,46.30
2019-03-25T10:22:52.768Z,47.10
2019-03-25T10:24:27.789Z,45.30
2019-03-25T10:26:00.069Z,45.20
2019-03-25T10:27:32.888Z,44.70
2019-03-25T10:29:05.636Z,44.80
2019-03-25T10:30:38.459Z,43.80
2019-03-25T10:32:13.646Z,44.60
2019-03-25T10:33:49.005Z,44.80
2019-03-25T10:35:21.784Z,45.00
2019-03-25T10:36:57.458Z,44.80
2019-03-25T10:38:35.231Z,43.70
2019-03-25T10:40:08.613Z,44.30
2019-03-25T10:41:41.600Z,45.60
2019-03-25T10:43:14.259Z,45.80
2019-03-25T10:44:47.077Z,44.70
2019-03-25T10:46:19.990Z,45.30
2019-03-25T10:47:52.883Z,45.00
2019-03-25T10:49:25.735Z,45.40
2019-03-25T10:50:58.376Z,44.90
2019-03-25T10:52:31.257Z,44.60
2019-03-25T10:54:04.055Z,44.00
2019-03-25T10:55:36.885Z,44.00
2019-03-25T10:57:09.692Z,43.70
2019-03-25T10:58:45.076Z,44.00
2019-03-25T11:00:18.516Z,44.40
2019-03-25T11:01:51.391Z,44.80
2019-03-25T11:03:24.357Z,43.70
2019-03-25T11:04:57.098Z,43.40
2019-03-25T11:06:29.906Z,44.10
2019-03-25T11:08:02.752Z,44.10
2019-03-25T11:09:35.524Z,44.60
2019-03-25T11:11:08.439Z,44.40
2019-03-25T11:12:41.248Z,45.60
2019-03-25T11:14:17.464Z,45.50
2019-03-25T11:15:50.317Z,45.30
2019-03-25T11:17:24.683Z,45.90
2019-03-25T11:18:57.493Z,45.70
2019-03-25T11:20:30.180Z,46.10
2019-03-25T11:22:02.979Z,46.00
2019-03-25T11:23:35.972Z,46.40
2019-03-25T11:25:10.952Z,46.60
2019-03-25T11:26:43.904Z,45.70
2019-03-25T11:28:16.851Z,44.80
2019-03-25T11:29:49.663Z,45.10
2019-03-25T11:31:22.546Z,45.10
2019-03-25T11:32:55.359Z,46.00
2019-03-25T11:34:28.196Z,48.50
2019-03-25T11:36:02.687Z,50.50
2019-03-25T11:37:41.340Z,51.90
2019-03-25T11:39:14.271Z,52.90
2019-03-25T11:40:47.132Z,53.70
2019-03-25T11:42:20.003Z,54.20
2019-03-25T11:43:52.876Z,55.00
2019-03-25T11:45:25.720Z,55.00
2019-03-25T11:46:58.666Z,54.90
2019-03-25T11:48:31.590Z,55.40
2019-03-25T11:50:04.706Z,54.90
2019-03-25T11:51:37.601Z,54.50
2019-03-25T11:53:11.668Z,53.00
2019-03-25T11:54:47.068Z,51.30
2019-03-25T11:56:20.062Z,50.50
2019-03-25T11:57:55.367Z,48.50
2019-03-25T11:59:30.705Z,48.50
2019-03-25T12:01:03.791Z,48.60
2019-03-25T12:02:36.613Z,48.80
2019-03-25T12:12:05.002Z,54.60
2019-03-25T12:13:37.809Z,56.90
2019-03-25T12:15:10.938Z,57.20
2019-03-25T12:16:43.723Z,57.80
2019-03-25T12:18:16.505Z,57.50
2019-03-25T12:19:49.328Z,57.30
2019-03-25T12:21:22.205Z,57.50
2019-03-25T12:22:54.996Z,56.70
2019-03-25T12:24:27.702Z,56.00
2019-03-25T12:26:00.537Z,55.20
2019-03-25T12:27:33.393Z,54.90
2019-03-25T12:29:06.291Z,54.10
2019-03-25T12:30:39.076Z,54.20
2019-03-25T12:32:11.880Z,55.00
2019-03-25T12:33:44.770Z,55.90
2019-03-25T12:35:17.419Z,56.60
2019-03-25T12:36:50.166Z,56.40
2019-03-25T12:38:22.958Z,57.10
2019-03-25T12:39:55.627Z,57.80
2019-03-25T12:41:28.456Z,58.00
2019-03-25T12:43:01.246Z,58.20
2019-03-25T12:44:34.090Z,58.60
2019-03-25T12:46:06.893Z,58.50
2019-03-25T12:47:39.713Z,59.00
2019-03-25T12:49:12.477Z,59.20
2019-03-25T12:50:45.129Z,59.40
2019-03-25T12:52:17.957Z,60.30
2019-03-25T12:53:50.783Z,60.70
2019-03-25T12:55:23.534Z,61.60
2019-03-25T12:56:58.213Z,62.30
2019-03-25T12:58:31.024Z,62.10
2019-03-25T13:00:04.462Z,60.50
2019-03-25T13:01:37.169Z,59.90
2019-03-25T13:03:09.998Z,59.80
2019-03-25T13:04:42.774Z,59.90
2019-03-25T13:06:15.618Z,60.30
2019-03-25T13:07:48.459Z,60.90
2019-03-25T13:09:21.270Z,61.30
2019-03-25T13:10:54.048Z,62.00
2019-03-25T13:12:26.825Z,62.30
2019-03-25T13:13:59.566Z,62.60
2019-03-25T13:15:32.460Z,62.90
2019-03-25T13:17:05.289Z,61.40
2019-03-25T13:18:38.059Z,61.30
2019-03-25T13:20:10.839Z,60.40
2019-03-25T13:21:43.513Z,60.10
2019-03-25T13:23:16.331Z,60.30
2019-03-25T13:24:49.123Z,59.90
2019-03-25T13:26:21.761Z,59.50
2019-03-25T13:27:54.615Z,59.30
2019-03-25T13:29:27.376Z,58.70
2019-03-25T13:31:00.153Z,58.70
2019-03-25T13:32:32.894Z,58.50
2019-03-25T13:34:05.567Z,58.00
2019-03-25T13:35:38.418Z,58.10
2019-03-25T13:37:11.168Z,58.00
2019-03-25T13:38:43.896Z,57.70
2019-03-25T13:40:16.811Z,57.50
2019-03-25T13:41:49.645Z,57.80
2019-03-25T13:43:22.434Z,57.40
2019-03-25T13:44:57.616Z,56.20
2019-03-25T13:46:29.905Z,56.10
2019-03-25T13:48:02.730Z,56.40
2019-03-25T13:49:35.445Z,56.40
2019-03-25T13:51:08.272Z,56.50
2019-03-25T13:52:41.129Z,56.00
2019-03-25T13:54:14.030Z,56.60
2019-03-25T13:55:49.117Z,56.40
2019-03-25T13:57:24.288Z,56.30
2019-03-25T13:58:57.109Z,55.80
2019-03-25T14:00:40.184Z,55.60
2019-03-25T14:02:12.932Z,55.90
2019-03-25T14:03:45.725Z,55.90
2019-03-25T14:05:18.548Z,55.50
2019-03-25T14:06:51.324Z,55.10
2019-03-25T14:08:24.211Z,57.10
2019-03-25T14:09:57.061Z,58.60
2019-03-25T14:11:29.849Z,60.40
2019-03-25T14:13:02.676Z,61.30
2019-03-25T14:14:35.510Z,61.60
2019-03-25T14:16:08.196Z,62.10
2019-03-25T14:17:40.873Z,63.00
2019-03-25T14:19:13.532Z,63.10
2019-03-25T14:20:46.373Z,63.40
2019-03-25T14:22:19.165Z,63.00
2019-03-25T14:23:52.136Z,62.50
2019-03-25T14:25:24.965Z,63.80
2019-03-25T14:26:57.629Z,63.00
2019-03-25T14:28:30.491Z,62.80
2019-03-25T14:30:13.940Z,62.00
2019-03-25T14:31:39.433Z,61.60
2019-03-25T14:33:12.252Z,61.50
2019-03-25T14:34:45.290Z,61.30
2019-03-25T14:36:18.094Z,61.40
2019-03-25T14:37:50.948Z,61.10
2019-03-25T14:39:23.763Z,61.10
2019-03-25T14:40:56.579Z,61.00
2019-03-25T14:42:29.373Z,61.00
2019-03-25T14:44:02.238Z,60.80
2019-03-25T14:45:35.039Z,59.90
2019-03-25T14:47:07.912Z,59.80
2019-03-25T14:48:40.721Z,59.90
2019-03-25T14:50:13.696Z,59.70
2019-03-25T14:51:46.700Z,60.70
2019-03-25T14:53:19.555Z,59.80
2019-03-25T14:54:52.380Z,59.80
2019-03-25T14:56:25.317Z,59.80
2019-03-25T14:57:58.113Z,59.30
2019-03-25T14:59:31.002Z,59.30
2019-03-25T15:01:03.900Z,59.20
2019-03-25T15:02:36.590Z,59.20
2019-03-25T15:04:09.436Z,59.10
2019-03-25T15:05:42.084Z,58.60
2019-03-25T15:07:14.781Z,58.70
2019-03-25T15:08:47.399Z,58.80
2019-03-25T15:10:20.094Z,58.90
2019-03-25T15:11:52.857Z,59.30
2019-03-25T15:13:25.746Z,58.50
2019-03-25T15:14:58.529Z,58.40
2019-03-25T15:16:31.306Z,58.70
2019-03-25T15:18:14.856Z,58.70
2019-03-25T15:19:38.795Z,58.70
2019-03-25T15:21:11.588Z,58.80
2019-03-25T15:22:44.365Z,58.60
2019-03-25T15:24:17.232Z,58.60
2019-03-25T15:25:50.094Z,59.00
2019-03-25T15:27:22.905Z,59.20
2019-03-25T15:28:55.781Z,60.30
2019-03-25T15:30:35.869Z,61.40
2019-03-25T15:32:03.080Z,62.20
2019-03-25T15:33:35.854Z,62.20
2019-03-25T15:35:08.685Z,64.20
2019-03-25T15:36:41.535Z,63.90
2019-03-25T15:38:14.314Z,64.40
2019-03-25T15:39:47.211Z,64.30
2019-03-25T15:41:21.845Z,64.30
2019-03-25T15:42:54.612Z,64.10
2019-03-25T15:44:27.439Z,63.50
2019-03-25T15:46:00.295Z,62.90
2019-03-25T15:47:33.236Z,63.00
2019-03-25T15:49:06.141Z,63.00
2019-03-25T15:50:39.006Z,63.20
2019-03-25T15:52:11.897Z,63.10
2019-03-25T15:53:44.741Z,62.90
2019-03-25T15:55:17.585Z,62.80
2019-03-25T15:56:50.554Z,62.90
2019-03-25T15:58:26.225Z,62.60
2019-03-25T15:59:58.073Z,62.80
2019-03-25T16:01:30.839Z,62.80
2019-03-25T16:03:03.675Z,62.80
2019-03-25T16:04:36.380Z,63.00
2019-03-25T16:06:09.500Z,63.30
2019-03-25T16:07:42.275Z,63.10
2019-03-25T16:09:15.198Z,62.90
2019-03-25T16:10:48.154Z,62.90
2019-03-25T16:12:20.973Z,62.90
2019-03-25T16:13:53.781Z,62.80
2019-03-25T16:15:37.458Z,63.00
2019-03-25T16:17:10.163Z,63.10
2019-03-25T16:18:42.973Z,63.30
2019-03-25T16:20:15.832Z,63.30
2019-03-25T16:21:51.901Z,63.30
2019-03-25T16:23:24.592Z,63.00
2019-03-25T16:24:57.413Z,63.00
2019-03-25T16:26:30.269Z,62.60
2019-03-25T16:28:03.054Z,62.40
2019-03-25T16:29:35.871Z,62.40
2019-03-25T16:31:08.732Z,62.80
2019-03-25T16:32:41.528Z,62.10
2019-03-25T16:34:14.394Z,62.00
2019-03-25T16:35:47.197Z,62.10
2019-03-25T16:37:29.758Z,62.30
2019-03-25T16:39:04.871Z,62.20
2019-03-25T16:40:37.786Z,62.50
2019-03-25T16:42:10.626Z,62.70
2019-03-25T16:43:43.397Z,62.40
2019-03-25T16:45:16.262Z,62.80
2019-03-25T16:46:49.161Z,63.00
2019-03-25T16:48:21.988Z,62.80
2019-03-25T16:49:54.735Z,63.00
2019-03-25T16:51:27.518Z,63.10
2019-03-25T16:53:00.837Z,63.10
2019-03-25T16:54:33.729Z,63.00
2019-03-25T16:56:06.440Z,63.20
2019-03-25T16:57:39.241Z,63.30
2019-03-25T16:59:12.060Z,63.40
2019-03-25T17:00:44.734Z,64.20
2019-03-25T17:02:17.444Z,65.70
2019-03-25T17:03:50.229Z,67.80
2019-03-25T17:05:23.140Z,67.20
2019-03-25T17:06:55.993Z,68.40
2019-03-25T17:08:28.910Z,69.20
2019-03-25T17:10:01.616Z,69.70
2019-03-25T17:11:34.439Z,70.60
2019-03-25T17:13:07.220Z,69.50
2019-03-25T17:14:40.044Z,69.40
2019-03-25T17:16:12.813Z,70.00
2019-03-25T17:17:45.726Z,70.40
2019-03-25T17:19:18.445Z,70.50
2019-03-25T17:20:51.226Z,70.80
2019-03-25T17:22:23.959Z,70.70
2019-03-25T17:23:56.731Z,71.50
2019-03-25T17:25:29.559Z,71.60
2019-03-25T17:27:02.401Z,71.70
2019-03-25T17:28:35.176Z,71.70
2019-03-25T17:30:11.700Z,72.50
2019-03-25T17:31:44.475Z,71.90
2019-03-25T17:33:17.256Z,71.80
2019-03-25T17:34:49.974Z,71.40
2019-03-25T17:36:22.880Z,71.80
2019-03-25T17:37:55.582Z,72.10
2019-03-25T17:39:28.228Z,72.10
2019-03-25T17:41:01.140Z,71.90
2019-03-25T17:42:34.013Z,72.10
2019-03-25T17:44:06.813Z,72.20
2019-03-25T17:45:39.605Z,72.90
2019-03-25T17:47:12.287Z,72.00
2019-03-25T17:48:45.158Z,72.80
2019-03-25T17:50:17.982Z,72.80
2019-03-25T17:51:50.772Z,72.20
2019-03-25T17:53:23.583Z,72.30
2019-03-25T17:54:56.285Z,72.80
2019-03-25T17:56:29.099Z,73.20
2019-03-25T17:58:01.886Z,73.40
2019-03-25T17:59:34.679Z,73.00
2019-03-25T18:01:32.593Z,73.20
2019-03-25T18:03:10.953Z,73.90
2019-03-25T18:04:40.057Z,73.40
2019-03-25T18:06:12.852Z,73.20
2019-03-25T18:07:45.670Z,73.20
2019-03-25T18:09:23.963Z,73.00
2019-03-25T18:10:56.800Z,73.60
2019-03-25T18:12:38.374Z,73.90
2019-03-25T18:14:04.184Z,73.80
2019-03-25T18:15:37.027Z,73.90
2019-03-25T18:17:09.845Z,74.10
2019-03-25T18:18:42.680Z,74.10
2019-03-25T18:20:18.955Z,74.10
2019-03-25T18:21:50.121Z,73.80
2019-03-25T18:23:22.786Z,74.20
2019-03-25T18:24:55.438Z,74.70
2019-03-25T18:26:28.277Z,74.60
2019-03-25T18:28:01.124Z,75.10
2019-03-25T18:29:34.099Z,75.00
2019-03-25T18:31:06.855Z,75.20
2019-03-25T18:32:39.716Z,74.40
2019-03-25T18:34:12.476Z,74.50
2019-03-25T18:35:45.286Z,74.50
2019-03-25T18:37:18.114Z,75.00
2019-03-25T18:38:50.915Z,74.60
2019-03-25T18:40:23.794Z,75.50
2019-03-25T18:41:56.622Z,75.10
2019-03-25T18:43:29.362Z,75.60
2019-03-25T18:45:02.118Z,75.10
2019-03-25T18:46:34.845Z,75.30
2019-03-25T18:48:07.542Z,75.10
2019-03-25T18:49:40.309Z,75.10
2019-03-25T18:51:13.039Z,75.10
2019-03-25T18:52:45.746Z,75.20
2019-03-25T18:54:18.386Z,75.70
2019-03-25T18:55:51.174Z,74.70
2019-03-25T18:57:23.836Z,75.00
2019-03-25T18:58:56.680Z,75.30
2019-03-25T19:00:31.057Z,75.50
2019-03-25T19:02:04.179Z,75.70
2019-03-25T19:03:37.138Z,75.90
2019-03-25T19:05:09.974Z,75.90
2019-03-25T19:06:44.681Z,76.20
2019-03-25T19:08:18.060Z,76.40
2019-03-25T19:09:52.633Z,76.30
2019-03-25T19:11:31.085Z,76.00
2019-03-25T19:13:00.126Z,75.90
2019-03-25T19:14:32.821Z,76.20
2019-03-25T19:16:05.681Z,75.70
2019-03-25T19:17:38.546Z,75.70
2019-03-25T19:19:11.430Z,75.90
2019-03-25T19:20:44.275Z,76.60
2019-03-25T19:22:17.148Z,75.90
2019-03-25T19:23:50.000Z,77.10
2019-03-25T19:25:22.906Z,76.10
2019-03-25T19:26:55.840Z,76.30
2019-03-25T19:28:28.666Z,75.90
2019-03-25T19:30:01.572Z,76.70
2019-03-25T19:31:34.225Z,76.40
2019-03-25T19:33:07.039Z,76.50
2019-03-25T19:34:39.889Z,76.50
2019-03-25T19:36:12.688Z,76.20
2019-03-25T19:37:45.625Z,76.30
2019-03-25T19:39:18.411Z,76.60
2019-03-25T19:40:51.208Z,76.10
2019-03-25T19:42:24.007Z,76.00
2019-03-25T19:43:57.030Z,76.10
2019-03-25T19:45:29.880Z,75.90
2019-03-25T19:47:02.837Z,76.20
2019-03-25T19:48:35.650Z,76.00
2019-03-25T19:50:08.771Z,76.60
2019-03-25T19:51:41.610Z,76.70
2019-03-25T19:53:19.304Z,76.60
2019-03-25T19:54:49.127Z,77.80
2019-03-25T19:56:22.012Z,76.60
2019-03-25T19:57:54.860Z,76.60
2019-03-25T19:59:27.716Z,76.80
2019-03-25T20:01:00.557Z,76.80
2019-03-25T20:02:33.400Z,76.50
2019-03-25T20:04:06.338Z,76.90
2019-03-25T20:05:39.230Z,77.50
2019-03-25T20:07:12.080Z,76.60